Time;durP1;ratioP1;P1;durP2;ratioP2;P2;SDS_P1;SDS_P2;PMS_P1;PMS_P2;Temp;Humidity;BMP_temperature;BMP_pressure;BME280_temperature;BME280_humidity;BME280_pressure;Samples;Min_cycle;Max_cycle;Signal;HPM_P1;HPM_P2
2021/10/07 00:02:56;;;;;;;11.6;9.8;;;;;;;12.8;100;99189.69;;;;
2021/10/07 00:12:55;;;;;;;16.6;11.7;;;;;;;12.78;100;99186.47;;;;
2021/10/07 00:22:55;;;;;;;13;9.6;;;;;;;12.6;100;99187.44;;;;
2021/10/07 00:33:07;;;;;;;18;9.6;;;;;;;12.61;100;99179.03;;;;
2021/10/07 00:42:54;;;;;;;14.8;9.2;;;;;;;12.52;100;99185.48;;;;
2021/10/07 00:52:53;;;;;;;12.3;9.6;;;;;;;12.51;100;99190.09;;;;
2021/10/07 01:02:52;;;;;;;18.5;12.7;;;;;;;12.54;100;99202.19;;;;
2021/10/07 01:12:52;;;;;;;16.8;12;;;;;;;12.58;100;99187.76;;;;
2021/10/07 01:22:51;;;;;;;15.7;12.4;;;;;;;12.61;100;99194.45;;;;
2021/10/07 01:32:50;;;;;;;13.5;10.9;;;;;;;12.62;100;99204.17;;;;
2021/10/07 01:42:50;;;;;;;14.9;12;;;;;;;12.46;100;99208.34;;;;
2021/10/07 01:52:49;;;;;;;14.5;12.3;;;;;;;12.53;100;99211.39;;;;
2021/10/07 02:02:49;;;;;;;12.1;10.5;;;;;;;12.49;100;99202.31;;;;
2021/10/07 02:12:48;;;;;;;16.8;13;;;;;;;12.68;100;99221.88;;;;
2021/10/07 02:22:47;;;;;;;15.3;13.5;;;;;;;12.61;100;99216.09;;;;
2021/10/07 02:32:47;;;;;;;16.7;14.7;;;;;;;12.67;100;99222.97;;;;
2021/10/07 02:42:46;;;;;;;15.5;13.9;;;;;;;12.58;100;99224.81;;;;
2021/10/07 02:52:45;;;;;;;16.6;13.6;;;;;;;12.7;100;99233.2;;;;
2021/10/07 03:02:45;;;;;;;19.5;14.7;;;;;;;12.55;100;99233.54;;;;
2021/10/07 03:12:44;;;;;;;21.4;15.6;;;;;;;12.56;100;99235.15;;;;
2021/10/07 03:22:44;;;;;;;20.7;15.2;;;;;;;12.58;100;99246.45;;;;
2021/10/07 03:32:43;;;;;;;17.9;15.3;;;;;;;12.59;100;99262.38;;;;
2021/10/07 03:42:42;;;;;;;21.6;16.7;;;;;;;12.49;100;99251.79;;;;
2021/10/07 03:52:42;;;;;;;19;16.2;;;;;;;12.51;100;99254.97;;;;
2021/10/07 04:02:41;;;;;;;18.9;15.7;;;;;;;12.53;100;99271.68;;;;
2021/10/07 04:12:41;;;;;;;19.3;13.2;;;;;;;12.62;100;99285.3;;;;
2021/10/07 04:22:40;;;;;;;18.8;15.1;;;;;;;12.57;100;99296.22;;;;
2021/10/07 04:32:39;;;;;;;25;18.1;;;;;;;12.59;100;99299.43;;;;
2021/10/07 04:42:39;;;;;;;22.5;18.9;;;;;;;12.71;100;99301.59;;;;
2021/10/07 04:52:38;;;;;;;18.6;16.7;;;;;;;12.63;100;99312.02;;;;
2021/10/07 05:02:38;;;;;;;24.6;18.7;;;;;;;12.63;100;99322.84;;;;
2021/10/07 05:12:38;;;;;;;23.8;18.3;;;;;;;12.53;100;99327.66;;;;
2021/10/07 05:22:36;;;;;;;21.5;16.3;;;;;;;12.5;100;99329.07;;;;
2021/10/07 05:32:36;;;;;;;19.1;17.1;;;;;;;12.64;100;99329.05;;;;
2021/10/07 05:42:35;;;;;;;23.6;18.2;;;;;;;12.74;100;99339.66;;;;
2021/10/07 05:52:35;;;;;;;25.6;22.9;;;;;;;12.64;100;99342.58;;;;
2021/10/07 06:02:34;;;;;;;34.3;26.4;;;;;;;12.3;100;99348.41;;;;
2021/10/07 06:12:34;;;;;;;39.9;30.5;;;;;;;12.07;100;99352.91;;;;
2021/10/07 06:22:33;;;;;;;42.7;28.7;;;;;;;12.22;100;99348.31;;;;
2021/10/07 06:32:33;;;;;;;36.7;29.7;;;;;;;12.27;100;99340.9;;;;
2021/10/07 06:42:32;;;;;;;41.7;30.3;;;;;;;12;100;99360.59;;;;
2021/10/07 06:52:32;;;;;;;38;28.9;;;;;;;12.19;100;99360.5;;;;
2021/10/07 07:02:31;;;;;;;29.6;26.7;;;;;;;12.26;100;99376.32;;;;
2021/10/07 07:12:31;;;;;;;31.3;25.8;;;;;;;12.36;100;99390.45;;;;
2021/10/07 07:22:30;;;;;;;38.9;26.4;;;;;;;12.34;100;99399.96;;;;
2021/10/07 07:32:29;;;;;;;28.1;25;;;;;;;12.56;100;99405.5;;;;
2021/10/07 07:42:29;;;;;;;23.4;18.2;;;;;;;12.67;100;99411.52;;;;
2021/10/07 07:52:28;;;;;;;17.6;13.5;;;;;;;12.62;100;99423.22;;;;
2021/10/07 08:02:28;;;;;;;28.3;18.9;;;;;;;12.71;100;99416;;;;
2021/10/07 08:12:31;;;;;;;22.7;19;;;;;;;12.71;100;99439.53;;;;
2021/10/07 08:22:27;;;;;;;23.5;18.7;;;;;;;12.6;100;99430.81;;;;
2021/10/07 08:32:26;;;;;;;24.4;19.2;;;;;;;12.6;100;99441.63;;;;
2021/10/07 08:42:26;;;;;;;24.2;16.6;;;;;;;12.84;100;99442.23;;;;
2021/10/07 08:52:25;;;;;;;21.7;17.7;;;;;;;12.74;100;99447.08;;;;
2021/10/07 09:02:32;;;;;;;23.1;18.2;;;;;;;12.76;100;99442.95;;;;
2021/10/07 09:12:24;;;;;;;25.6;19.5;;;;;;;12.8;100;99449.38;;;;
2021/10/07 09:22:24;;;;;;;24.4;20.9;;;;;;;12.94;100;99452.88;;;;
2021/10/07 09:32:24;;;;;;;26;21.5;;;;;;;13.05;100;99454.25;;;;
2021/10/07 09:42:23;;;;;;;23.6;19.7;;;;;;;13.61;100;99461.19;;;;
2021/10/07 09:52:23;;;;;;;22.7;18.2;;;;;;;13.41;100;99456.23;;;;
2021/10/07 10:02:23;;;;;;;21.4;17.3;;;;;;;13.24;100;99466.9;;;;
2021/10/07 10:12:22;;;;;;;21.4;16.6;;;;;;;13.55;100;99468.64;;;;
2021/10/07 10:22:22;;;;;;;12.4;10.2;;;;;;;13.95;100;99464.17;;;;
2021/10/07 10:32:22;;;;;;;13.3;10.9;;;;;;;13.75;100;99463.86;;;;
2021/10/07 10:42:22;;;;;;;21.3;12;;;;;;;14.49;100;99460.41;;;;
2021/10/07 10:52:21;;;;;;;12.6;8.7;;;;;;;14.99;100;99466.34;;;;
2021/10/07 11:02:21;;;;;;;16.1;10.6;;;;;;;15.16;100;99471.05;;;;
2021/10/07 11:12:21;;;;;;;12.4;8;;;;;;;15.38;100;99459.24;;;;
2021/10/07 11:22:22;;;;;;;12.1;8.5;;;;;;;15.04;100;99462.69;;;;
2021/10/07 11:32:21;;;;;;;11.5;8.6;;;;;;;15.16;100;99462.09;;;;
2021/10/07 11:42:20;;;;;;;12.2;8.4;;;;;;;16.15;100;99456.55;;;;
2021/10/07 11:52:20;;;;;;;13.5;10.2;;;;;;;15.95;100;99457.22;;;;
2021/10/07 12:02:20;;;;;;;14.5;9.8;;;;;;;15.09;100;99449.79;;;;
2021/10/07 12:12:20;;;;;;;14.9;8.5;;;;;;;15.76;100;99460.26;;;;
2021/10/07 12:22:20;;;;;;;12.4;6.5;;;;;;;15.57;100;99455.16;;;;
2021/10/07 12:32:20;;;;;;;11.3;6.4;;;;;;;15.24;100;99453.95;;;;
2021/10/07 12:42:20;;;;;;;16.5;6.8;;;;;;;15.65;100;99469.88;;;;
2021/10/07 12:52:20;;;;;;;12.1;6.3;;;;;;;15.26;100;99483.52;;;;
2021/10/07 13:02:20;;;;;;;8.9;5;;;;;;;15.64;100;99490;;;;
2021/10/07 13:12:20;;;;;;;12;6.2;;;;;;;15.24;100;99494.69;;;;
2021/10/07 13:22:20;;;;;;;9.1;5.9;;;;;;;15.25;100;99490.86;;;;
2021/10/07 13:32:20;;;;;;;11.2;5.9;;;;;;;15.09;100;99495.94;;;;
2021/10/07 13:42:19;;;;;;;8.6;5.2;;;;;;;15.15;100;99503.92;;;;
2021/10/07 13:52:19;;;;;;;9.8;5.9;;;;;;;14.28;100;99515.44;;;;
2021/10/07 14:02:19;;;;;;;11.6;5.3;;;;;;;13.94;100;99516.8;;;;
2021/10/07 14:12:18;;;;;;;15.9;6.3;;;;;;;13.67;100;99530.42;;;;
2021/10/07 14:22:18;;;;;;;9.3;4.8;;;;;;;13.28;100;99547.22;;;;
2021/10/07 14:32:18;;;;;;;10.4;5.8;;;;;;;13.16;100;99540.69;;;;
2021/10/07 14:42:17;;;;;;;12.6;6.4;;;;;;;12.87;100;99547.17;;;;
2021/10/07 14:52:17;;;;;;;20.6;7.8;;;;;;;12.98;100;99553.98;;;;
2021/10/07 15:02:17;;;;;;;12.1;5.7;;;;;;;12.69;100;99553.45;;;;
2021/10/07 15:12:16;;;;;;;12.7;5.4;;;;;;;12.43;100;99547.66;;;;
2021/10/07 15:22:17;;;;;;;10;5.3;;;;;;;12.17;100;99559.98;;;;
2021/10/07 15:32:14;;;;;;;15.5;6.8;;;;;;;11.96;100;99573;;;;
2021/10/07 15:42:14;;;;;;;13.3;5.6;;;;;;;11.79;100;99580.8;;;;
2021/10/07 15:52:14;;;;;;;14;5.5;;;;;;;11.67;100;99588.48;;;;
2021/10/07 16:02:13;;;;;;;14;8.9;;;;;;;11.47;100;99599.54;;;;
2021/10/07 16:12:14;;;;;;;12;7.7;;;;;;;11.42;100;99607.72;;;;
2021/10/07 16:22:14;;;;;;;21.8;8.3;;;;;;;11.37;100;99613.16;;;;
2021/10/07 16:32:15;;;;;;;14;6.7;;;;;;;11.35;100;99613.43;;;;
2021/10/07 16:42:10;;;;;;;25.7;11.9;;;;;;;11.16;100;99609.06;;;;
2021/10/07 16:52:12;;;;;;;18.7;10.1;;;;;;;11.19;100;99611.19;;;;
2021/10/07 17:02:10;;;;;;;16.4;7.7;;;;;;;11.22;100;99616.82;;;;
2021/10/07 17:12:11;;;;;;;17.2;7.3;;;;;;;11.13;100;99615.05;;;;
2021/10/07 17:22:11;;;;;;;13.6;9.6;;;;;;;10.79;100;99615.92;;;;
2021/10/07 17:32:06;;;;;;;13.9;10.7;;;;;;;10.48;100;99623.42;;;;
2021/10/07 17:42:06;;;;;;;20.9;13.2;;;;;;;10.34;100;99629.75;;;;
2021/10/07 17:52:04;;;;;;;18.1;10.2;;;;;;;10.3;100;99640.28;;;;
2021/10/07 18:02:03;;;;;;;17.8;8.7;;;;;;;10.13;100;99629.05;;;;
2021/10/07 18:12:03;;;;;;;25.4;11.9;;;;;;;10.08;100;99637.95;;;;
2021/10/07 18:22:02;;;;;;;14.7;9.8;;;;;;;9.95;100;99640.45;;;;
2021/10/07 18:32:01;;;;;;;24.2;9.5;;;;;;;9.52;100;99636.59;;;;
2021/10/07 18:42:00;;;;;;;20;10.3;;;;;;;9.18;100;99636.44;;;;
2021/10/07 18:51:59;;;;;;;18.7;11.2;;;;;;;8.88;100;99636.48;;;;
2021/10/07 19:01:58;;;;;;;21.1;10.7;;;;;;;8.6;100;99632.47;;;;
2021/10/07 19:11:57;;;;;;;15.6;9.8;;;;;;;8.23;100;99629.16;;;;
2021/10/07 19:21:55;;;;;;;31.9;12.8;;;;;;;8.05;100;99635.87;;;;
2021/10/07 19:31:54;;;;;;;27.7;12.3;;;;;;;7.76;100;99635.51;;;;
2021/10/07 19:41:53;;;;;;;22.9;11;;;;;;;7.61;100;99640.8;;;;
2021/10/07 19:51:52;;;;;;;14.6;11.4;;;;;;;7.41;100;99646.08;;;;
2021/10/07 20:01:51;;;;;;;24.3;13.6;;;;;;;7.24;100;99632.86;;;;
2021/10/07 20:11:50;;;;;;;30.7;13.3;;;;;;;7.12;100;99637.59;;;;
2021/10/07 20:21:49;;;;;;;29.9;13.5;;;;;;;7.12;100;99634.11;;;;
2021/10/07 20:31:47;;;;;;;20.4;12.2;;;;;;;7.11;100;99641.37;;;;
2021/10/07 20:41:45;;;;;;;21.4;12.9;;;;;;;7;100;99658.44;;;;
2021/10/07 20:51:44;;;;;;;25.9;13.5;;;;;;;6.86;100;99671.48;;;;
2021/10/07 21:01:43;;;;;;;17.5;11.7;;;;;;;6.68;100;99661.15;;;;
2021/10/07 21:11:41;;;;;;;30.7;13;;;;;;;6.43;100;99653.7;;;;
2021/10/07 21:21:40;;;;;;;28.8;13.9;;;;;;;6.32;100;99657.34;;;;
2021/10/07 21:31:39;;;;;;;21.3;13.3;;;;;;;6.14;100;99662.25;;;;
2021/10/07 21:41:37;;;;;;;29.6;14.2;;;;;;;5.92;100;99673.8;;;;
2021/10/07 21:51:36;;;;;;;26.2;12.9;;;;;;;5.87;100;99676.39;;;;
2021/10/07 22:01:35;;;;;;;21.8;12.3;;;;;;;5.69;100;99675.89;;;;
2021/10/07 22:11:33;;;;;;;21.9;12.8;;;;;;;5.55;100;99675.45;;;;
2021/10/07 22:21:32;;;;;;;33.4;15.3;;;;;;;5.4;100;99683.27;;;;
2021/10/07 22:31:35;;;;;;;17.4;12.7;;;;;;;5.3;100;99685.8;;;;
2021/10/07 22:41:29;;;;;;;27.3;13.6;;;;;;;5.19;100;99682.17;;;;
2021/10/07 22:51:27;;;;;;;34.1;16.7;;;;;;;5.1;100;99686.33;;;;
2021/10/07 23:01:26;;;;;;;26.4;14.6;;;;;;;5.07;100;99690.27;;;;
2021/10/07 23:11:24;;;;;;;26;13.6;;;;;;;5.02;100;99695.55;;;;
2021/10/07 23:21:23;;;;;;;29.6;14.8;;;;;;;4.9;100;99694;;;;
2021/10/07 23:31:21;;;;;;;16.7;12.4;;;;;;;4.88;100;99694.27;;;;
2021/10/07 23:41:20;;;;;;;20.3;13.9;;;;;;;4.78;100;99693.28;;;;
2021/10/07 23:51:18;;;;;;;27;14.6;;;;;;;4.68;100;99688.59;;;;
